createdAt,value
2018-07-15T00:00:10.385Z,-55
2018-07-15T00:01:15.241Z,-54
2018-07-15T00:02:16.136Z,-54
2018-07-15T00:03:19.644Z,-55
2018-07-15T00:04:29.076Z,-54
2018-07-15T00:05:31.056Z,-53
2018-07-15T00:06:26.321Z,-54
2018-07-15T00:07:27.760Z,-54
2018-07-15T00:08:33.472Z,-54
2018-07-15T00:09:28.597Z,-54
2018-07-15T00:11:40.948Z,-54
2018-07-15T00:12:39.044Z,-53
2018-07-15T00:13:42.158Z,-53
2018-07-15T00:14:40.893Z,-54
2018-07-15T00:15:41.308Z,-55
2018-07-15T00:16:39.108Z,-54
2018-07-15T00:17:41.017Z,-53
2018-07-15T00:18:37.345Z,-54
2018-07-15T00:19:43.099Z,-55
2018-07-15T00:20:41.025Z,-53
2018-07-15T00:21:42.813Z,-54
2018-07-15T00:22:46.693Z,-53
2018-07-15T00:25:03.051Z,-54
2018-07-15T00:26:04.828Z,-54
2018-07-15T00:27:01.402Z,-54
2018-07-15T00:28:01.318Z,-53
2018-07-15T00:28:59.165Z,-53
2018-07-15T00:30:07.920Z,-53
2018-07-15T00:31:03.112Z,-54
2018-07-15T00:32:04.328Z,-53
2018-07-15T00:33:02.075Z,-54
2018-07-15T00:34:04.786Z,-54
2018-07-15T00:35:06.191Z,-53
2018-07-15T00:36:02.818Z,-54
2018-07-15T00:38:18.419Z,-54
2018-07-15T00:39:16.334Z,-54
2018-07-15T00:40:18.928Z,-54
2018-07-15T00:41:22.173Z,-53
2018-07-15T00:42:20.109Z,-54
2018-07-15T00:43:19.119Z,-54
2018-07-15T00:44:18.714Z,-53
2018-07-15T00:45:16.671Z,-54
2018-07-15T00:46:29.959Z,-53
2018-07-15T00:47:28.748Z,-54
2018-07-15T00:48:28.669Z,-54
2018-07-15T00:49:34.884Z,-54
2018-07-15T00:51:44.089Z,-54
2018-07-15T00:52:41.525Z,-54
2018-07-15T00:53:41.849Z,-54
2018-07-15T00:54:42.904Z,-54
2018-07-15T00:55:39.056Z,-54
2018-07-15T00:56:37.911Z,-54
2018-07-15T00:57:37.897Z,-53
2018-07-15T00:58:39.192Z,-53
2018-07-15T00:59:38.211Z,-54
2018-07-15T01:00:32.757Z,-54
2018-07-15T01:01:40.840Z,-54
2018-07-15T01:02:42.256Z,-54
2018-07-15T01:03:38.875Z,-54
2018-07-15T01:04:41.689Z,-54
2018-07-15T01:06:51.536Z,-54
2018-07-15T01:07:53.636Z,-53
2018-07-15T01:08:53.552Z,-54
2018-07-15T01:09:53.386Z,-53
2018-07-15T01:10:53.158Z,-53
2018-07-15T01:11:54.437Z,-53
2018-07-15T01:12:49.818Z,-54
2018-07-15T01:13:51.713Z,-55
2018-07-15T01:14:50.620Z,-55
2018-07-15T01:15:48.353Z,-56
2018-07-15T01:16:46.466Z,-55
2018-07-15T01:17:43.742Z,-53
2018-07-15T01:20:01.598Z,-54
2018-07-15T01:21:02.720Z,-54
2018-07-15T01:22:09.189Z,-53
2018-07-15T01:23:07.023Z,-54
2018-07-15T01:24:05.114Z,-54
2018-07-15T01:25:06.234Z,-54
2018-07-15T01:26:06.823Z,-55
2018-07-15T01:27:13.141Z,-53
2018-07-15T01:28:15.251Z,-53
2018-07-15T01:29:13.147Z,-53
2018-07-15T01:31:37.795Z,-54
2018-07-15T01:32:35.403Z,-53
2018-07-15T01:33:33.210Z,-52
2018-07-15T01:34:31.061Z,-53
2018-07-15T01:35:33.143Z,-53
2018-07-15T01:36:34.349Z,-55
2018-07-15T01:37:30.815Z,-53
2018-07-15T01:38:29.873Z,-54
2018-07-15T01:39:27.384Z,-53
2018-07-15T01:41:35.467Z,-54
2018-07-15T01:42:36.198Z,-53
2018-07-15T01:43:34.859Z,-53
2018-07-15T01:44:32.708Z,-54
2018-07-15T01:45:30.332Z,-53
2018-07-15T01:46:28.303Z,-54
2018-07-15T01:47:27.670Z,-54
2018-07-15T01:48:26.787Z,-54
2018-07-15T01:49:30.791Z,-54
2018-07-15T01:50:28.820Z,-53
2018-07-15T01:51:26.649Z,-53
2018-07-15T01:52:24.256Z,-53
2018-07-15T01:53:23.259Z,-53
2018-07-15T01:55:40.398Z,-54
2018-07-15T01:56:45.922Z,-53
2018-07-15T01:57:40.302Z,-54
2018-07-15T01:58:40.858Z,-53
2018-07-15T01:59:36.959Z,-54
2018-07-15T02:00:42.393Z,-53
2018-07-15T02:01:36.938Z,-54
2018-07-15T02:02:39.381Z,-53
2018-07-15T02:03:38.143Z,-54
2018-07-15T02:04:34.447Z,-53
2018-07-15T02:05:35.884Z,-53
2018-07-15T02:06:30.127Z,-54
2018-07-15T02:07:33.900Z,-53
2018-07-15T02:08:34.396Z,-54
2018-07-15T02:10:46.930Z,-54
2018-07-15T02:11:45.465Z,-53
2018-07-15T02:12:46.571Z,-53
2018-07-15T02:13:41.721Z,-54
2018-07-15T02:14:44.172Z,-54
2018-07-15T02:15:41.824Z,-54
2018-07-15T02:16:41.919Z,-54
2018-07-15T02:17:43.005Z,-54
2018-07-15T02:18:45.078Z,-54
2018-07-15T02:19:44.832Z,-53
2018-07-15T02:20:51.174Z,-54
2018-07-15T02:22:39.885Z,-54
2018-07-15T02:23:44.366Z,-53
2018-07-15T02:24:41.840Z,-53
2018-07-15T02:25:39.626Z,-53
2018-07-15T02:26:43.906Z,-53
2018-07-15T02:27:45.257Z,-54
2018-07-15T02:28:43.046Z,-53
2018-07-15T02:29:45.185Z,-54
2018-07-15T02:30:47.178Z,-53
2018-07-15T02:31:45.723Z,-54
2018-07-15T02:32:43.205Z,-54
2018-07-15T02:33:40.745Z,-53
2018-07-15T02:34:39.105Z,-54
2018-07-15T02:36:47.154Z,-54
2018-07-15T02:37:45.645Z,-54
2018-07-15T02:38:46.171Z,-54
2018-07-15T02:39:45.117Z,-53
2018-07-15T02:40:42.869Z,-54
2018-07-15T02:41:41.599Z,-54
2018-07-15T02:42:42.712Z,-54
2018-07-15T02:43:40.776Z,-53
2018-07-15T02:44:41.461Z,-54
2018-07-15T02:46:45.354Z,-54
2018-07-15T02:47:49.626Z,-54
2018-07-15T02:48:48.367Z,-53
2018-07-15T02:49:46.269Z,-54
2018-07-15T02:50:41.556Z,-57
2018-07-15T02:51:44.693Z,-53
2018-07-15T02:52:46.095Z,-53
2018-07-15T02:53:45.212Z,-53
2018-07-15T02:54:44.203Z,-53
2018-07-15T02:55:48.029Z,-54
2018-07-15T02:56:43.554Z,-53
2018-07-15T02:58:53.250Z,-55
2018-07-15T02:59:56.571Z,-53
2018-07-15T03:00:54.927Z,-54
2018-07-15T03:01:56.457Z,-54
2018-07-15T03:02:57.653Z,-54
2018-07-15T03:03:55.294Z,-53
2018-07-15T03:04:52.099Z,-53
2018-07-15T03:05:49.856Z,-53
2018-07-15T03:06:51.590Z,-53
2018-07-15T03:07:50.408Z,-54
2018-07-15T03:08:50.666Z,-53
2018-07-15T03:09:50.956Z,-53
2018-07-15T03:10:45.438Z,-54
2018-07-15T03:11:47.516Z,-54
2018-07-15T03:12:44.329Z,-53
2018-07-15T03:13:42.299Z,-53
2018-07-15T03:15:49.689Z,-54
2018-07-15T03:16:50.691Z,-54
2018-07-15T03:17:48.411Z,-53
2018-07-15T03:18:47.184Z,-55
2018-07-15T03:19:48.291Z,-54
2018-07-15T03:20:51.419Z,-53
2018-07-15T03:21:52.188Z,-54
2018-07-15T03:22:51.292Z,-53
2018-07-15T03:24:07.708Z,-52
2018-07-15T03:26:15.020Z,-54
2018-07-15T03:27:12.270Z,-53
2018-07-15T03:28:16.743Z,-53
2018-07-15T03:29:11.183Z,-54
2018-07-15T03:30:16.528Z,-54
2018-07-15T03:31:18.977Z,-54
2018-07-15T03:32:13.832Z,-54
2018-07-15T03:33:12.127Z,-53
2018-07-15T03:34:17.981Z,-53
2018-07-15T03:35:23.720Z,-54
2018-07-15T03:37:30.491Z,-54
2018-07-15T03:38:28.837Z,-54
2018-07-15T03:39:33.540Z,-54
2018-07-15T03:40:30.727Z,-53
2018-07-15T03:41:31.946Z,-54
2018-07-15T03:42:37.178Z,-54
2018-07-15T03:43:37.249Z,-54
2018-07-15T03:44:33.642Z,-53
2018-07-15T03:45:31.378Z,-53
2018-07-15T03:46:31.943Z,-54
2018-07-15T03:47:28.245Z,-53
2018-07-15T03:48:27.497Z,-53
2018-07-15T03:50:35.242Z,-54
2018-07-15T03:51:51.780Z,-53
2018-07-15T03:52:57.110Z,-53
2018-07-15T03:53:58.982Z,-54
2018-07-15T03:54:56.917Z,-53
2018-07-15T03:55:52.175Z,-54
2018-07-15T03:56:53.637Z,-55
2018-07-15T03:57:48.736Z,-53
2018-07-15T03:58:46.668Z,-53
2018-07-15T03:59:47.640Z,-54
2018-07-15T04:00:55.734Z,-55
2018-07-15T04:01:55.749Z,-53
2018-07-15T04:04:08.527Z,-54
2018-07-15T04:05:06.389Z,-54
2018-07-15T04:06:08.112Z,-54
2018-07-15T04:07:03.768Z,-53
2018-07-15T04:08:17.381Z,-54
2018-07-15T04:09:17.058Z,-54
2018-07-15T04:10:12.398Z,-53
2018-07-15T04:11:10.345Z,-53
2018-07-15T04:12:12.251Z,-53
2018-07-15T04:13:13.462Z,-54
2018-07-15T04:14:10.960Z,-53
2018-07-15T04:15:08.891Z,-54
2018-07-15T04:16:06.738Z,-53
2018-07-15T04:17:04.572Z,-54
2018-07-15T04:19:15.057Z,-54
2018-07-15T04:20:11.572Z,-54
2018-07-15T04:21:12.544Z,-53
2018-07-15T04:22:13.601Z,-53
2018-07-15T04:23:14.366Z,-53
2018-07-15T04:24:15.117Z,-55
2018-07-15T04:25:13.225Z,-53
2018-07-15T04:26:14.196Z,-53
2018-07-15T04:27:14.095Z,-54
2018-07-15T04:28:19.463Z,-53
2018-07-15T04:29:18.166Z,-54
2018-07-15T04:31:26.008Z,-54
2018-07-15T04:32:28.307Z,-53
2018-07-15T04:33:27.040Z,-53
2018-07-15T04:34:26.694Z,-53
2018-07-15T04:35:28.711Z,-53
2018-07-15T04:36:31.384Z,-54
2018-07-15T04:37:31.307Z,-54
2018-07-15T04:38:25.381Z,-53
2018-07-15T04:39:30.171Z,-54
2018-07-15T04:40:25.160Z,-53
2018-07-15T04:42:33.937Z,-54
2018-07-15T04:43:38.890Z,-55
2018-07-15T04:44:37.526Z,-54
2018-07-15T04:45:34.365Z,-53
2018-07-15T04:46:40.571Z,-53
2018-07-15T04:47:42.392Z,-54
2018-07-15T04:48:43.694Z,-54
2018-07-15T04:49:37.085Z,-53
2018-07-15T04:50:47.392Z,-53
2018-07-15T04:51:42.883Z,-53
2018-07-15T04:52:45.019Z,-53
2018-07-15T04:54:53.406Z,-54
2018-07-15T04:55:50.864Z,-53
2018-07-15T04:56:50.834Z,-53
2018-07-15T04:57:53.938Z,-53
2018-07-15T04:58:50.671Z,-54
2018-07-15T04:59:51.609Z,-54
2018-07-15T05:00:49.779Z,-54
2018-07-15T05:01:48.146Z,-54
2018-07-15T05:02:51.949Z,-54
2018-07-15T05:04:08.429Z,-54
2018-07-15T05:05:09.508Z,-53
2018-07-15T05:06:08.871Z,-54
2018-07-15T05:08:16.789Z,-54
2018-07-15T05:09:14.818Z,-53
2018-07-15T05:10:11.898Z,-54
2018-07-15T05:11:15.839Z,-54
2018-07-15T05:12:13.483Z,-53
2018-07-15T05:13:11.800Z,-53
2018-07-15T05:14:11.642Z,-54
2018-07-15T05:15:10.823Z,-53
2018-07-15T05:16:11.721Z,-53
2018-07-15T05:17:16.910Z,-53
2018-07-15T05:18:15.105Z,-53
2018-07-15T05:19:19.517Z,-54
2018-07-15T05:20:19.410Z,-53
2018-07-15T05:21:20.930Z,-53
2018-07-15T05:23:28.399Z,-54
2018-07-15T05:24:31.795Z,-53
2018-07-15T05:25:42.304Z,-53
2018-07-15T05:26:49.914Z,-54
2018-07-15T05:27:57.183Z,-53
2018-07-15T05:29:00.557Z,-53
2018-07-15T05:30:00.879Z,-53
2018-07-15T05:31:05.291Z,-53
2018-07-15T05:32:04.880Z,-53
2018-07-15T05:33:02.726Z,-55
2018-07-15T05:34:05.075Z,-52
2018-07-15T05:35:04.640Z,-53
2018-07-15T05:36:00.999Z,-54
2018-07-15T05:37:00.836Z,-53
2018-07-15T05:37:58.116Z,-53
2018-07-15T05:40:18.762Z,-54
2018-07-15T05:41:16.198Z,-53
2018-07-15T05:42:19.031Z,-53
2018-07-15T05:43:19.738Z,-53
2018-07-15T05:44:19.914Z,-53
2018-07-15T05:45:20.630Z,-53
2018-07-15T05:46:19.382Z,-53
2018-07-15T05:47:19.588Z,-53
2018-07-15T05:49:23.928Z,-54
2018-07-15T05:50:25.278Z,-53
2018-07-15T05:51:23.094Z,-53
2018-07-15T05:52:21.122Z,-54
2018-07-15T05:53:24.890Z,-52
2018-07-15T05:54:20.690Z,-53
2018-07-15T05:55:25.925Z,-52
2018-07-15T05:56:27.866Z,-53
2018-07-15T05:57:34.809Z,-53
2018-07-15T05:58:33.876Z,-53
2018-07-15T05:59:32.664Z,-53
2018-07-15T06:00:40.595Z,-53
2018-07-15T06:02:59.933Z,-54
2018-07-15T06:04:02.011Z,-52
2018-07-15T06:05:03.405Z,-53
2018-07-15T06:06:01.572Z,-53
2018-07-15T06:07:01.543Z,-52
2018-07-15T06:08:04.684Z,-53
2018-07-15T06:09:07.627Z,-53
2018-07-15T06:10:07.543Z,-53
2018-07-15T06:11:06.335Z,-53
2018-07-15T06:12:06.448Z,-55
2018-07-15T06:13:05.500Z,-53
2018-07-15T06:15:12.253Z,-53
2018-07-15T06:16:08.838Z,-53
2018-07-15T06:17:10.416Z,-52
2018-07-15T06:18:08.074Z,-52
2018-07-15T06:19:08.128Z,-52
2018-07-15T06:20:03.282Z,-53
2018-07-15T06:21:07.990Z,-53
2018-07-15T06:22:15.224Z,-53
2018-07-15T06:23:10.513Z,-53
2018-07-15T06:24:09.597Z,-52
2018-07-15T06:25:06.999Z,-52
2018-07-15T06:26:07.476Z,-53
2018-07-15T06:27:06.858Z,-53
2018-07-15T06:29:17.475Z,-53
2018-07-15T06:30:15.563Z,-53
2018-07-15T06:31:12.705Z,-53
2018-07-15T06:32:17.224Z,-52
2018-07-15T06:33:20.105Z,-53
2018-07-15T06:34:22.254Z,-53
2018-07-15T06:35:22.819Z,-53
2018-07-15T06:36:24.910Z,-52
2018-07-15T06:37:23.889Z,-55
2018-07-15T06:38:21.499Z,-52
2018-07-15T06:39:24.872Z,-53
2018-07-15T06:40:19.610Z,-53
2018-07-15T06:41:22.548Z,-52
2018-07-15T06:42:18.297Z,-53
2018-07-15T06:44:32.088Z,-53
2018-07-15T06:45:34.292Z,-54
2018-07-15T06:46:35.657Z,-53
2018-07-15T06:47:36.474Z,-53
2018-07-15T06:48:34.265Z,-52
2018-07-15T06:49:31.813Z,-53
2018-07-15T06:50:33.136Z,-52
2018-07-15T06:51:33.115Z,-53
2018-07-15T06:52:29.891Z,-54
2018-07-15T06:53:32.059Z,-52
2018-07-15T06:54:27.489Z,-53
2018-07-15T06:55:29.527Z,-52
2018-07-15T06:56:30.355Z,-53
2018-07-15T06:58:47.412Z,-53
2018-07-15T06:59:51.967Z,-53
2018-07-15T07:00:49.866Z,-53
2018-07-15T07:01:47.616Z,-52
2018-07-15T07:02:50.687Z,-52
2018-07-15T07:03:45.444Z,-52
2018-07-15T07:04:51.540Z,-52
2018-07-15T07:05:52.715Z,-52
2018-07-15T07:06:55.086Z,-53
2018-07-15T07:07:55.634Z,-52
2018-07-15T07:08:56.769Z,-52
2018-07-15T07:11:01.989Z,-53
2018-07-15T07:12:05.441Z,-52
2018-07-15T07:13:06.724Z,-53
2018-07-15T07:14:04.598Z,-53
2018-07-15T07:15:03.225Z,-52
2018-07-15T07:15:59.729Z,-52
2018-07-15T07:16:58.636Z,-52
2018-07-15T07:17:59.173Z,-52
2018-07-15T07:19:13.029Z,-52
2018-07-15T07:20:05.568Z,-52
2018-07-15T07:21:04.211Z,-52
2018-07-15T07:23:11.672Z,-52
2018-07-15T07:24:19.900Z,-52
2018-07-15T07:25:17.320Z,-53
2018-07-15T07:26:27.829Z,-52
2018-07-15T07:27:30.711Z,-53
2018-07-15T07:28:25.377Z,-52
2018-07-15T07:29:30.709Z,-52
2018-07-15T07:30:32.820Z,-52
2018-07-15T07:31:30.516Z,-52
2018-07-15T07:32:26.755Z,-53
2018-07-15T07:33:32.367Z,-52
2018-07-15T07:34:27.142Z,-52
2018-07-15T07:36:35.785Z,-53
2018-07-15T07:37:36.730Z,-53
2018-07-15T07:38:37.273Z,-52
2018-07-15T07:39:38.169Z,-52
2018-07-15T07:40:34.556Z,-53
2018-07-15T07:41:35.490Z,-52
2018-07-15T07:42:36.602Z,-54
2018-07-15T07:43:35.161Z,-53
2018-07-15T07:44:32.643Z,-54
2018-07-15T07:46:42.568Z,-53
2018-07-15T07:47:38.997Z,-52
2018-07-15T07:48:44.668Z,-52
2018-07-15T07:49:49.587Z,-53
2018-07-15T07:50:53.489Z,-53
2018-07-15T07:51:51.364Z,-53
2018-07-15T07:52:50.169Z,-54
2018-07-15T07:53:48.342Z,-53
2018-07-15T07:54:43.310Z,-53
2018-07-15T07:55:42.477Z,-52
2018-07-15T07:57:53.752Z,-53
2018-07-15T07:58:53.094Z,-53
2018-07-15T08:00:06.988Z,-52
2018-07-15T08:01:07.056Z,-53
2018-07-15T08:02:10.958Z,-52
2018-07-15T08:03:12.877Z,-54
2018-07-15T08:04:15.691Z,-56
2018-07-15T08:05:22.109Z,-55
2018-07-15T08:07:48.696Z,-55
2018-07-15T08:08:52.928Z,-54
2018-07-15T08:09:51.968Z,-52
2018-07-15T08:10:56.200Z,-52
2018-07-15T08:11:53.632Z,-52
2018-07-15T08:12:54.236Z,-53
2018-07-15T08:13:54.511Z,-52
2018-07-15T08:14:55.372Z,-56
2018-07-15T08:15:50.196Z,-50
2018-07-15T08:16:51.023Z,-52
2018-07-15T08:17:50.669Z,-52
2018-07-15T08:20:05.606Z,-53
2018-07-15T08:21:03.649Z,-53
2018-07-15T08:22:09.249Z,-53
2018-07-15T08:23:14.942Z,-52
2018-07-15T08:24:17.283Z,-52
2018-07-15T08:25:12.932Z,-52
2018-07-15T08:26:13.819Z,-55
2018-07-15T08:27:15.780Z,-58
2018-07-15T08:28:18.840Z,-56
2018-07-15T08:29:17.149Z,-57
2018-07-15T08:30:18.514Z,-57
2018-07-15T08:31:17.473Z,-57
2018-07-15T08:33:40.664Z,-58
2018-07-15T08:34:37.081Z,-58
2018-07-15T08:35:38.934Z,-57
2018-07-15T08:36:36.866Z,-58
2018-07-15T08:37:36.469Z,-57
2018-07-15T08:38:38.078Z,-57
2018-07-15T08:39:33.209Z,-56
2018-07-15T08:40:33.540Z,-57
2018-07-15T08:41:40.657Z,-60
2018-07-15T08:42:35.177Z,-58
2018-07-15T08:43:37.792Z,-59
2018-07-15T08:44:36.182Z,-56
2018-07-15T08:45:38.226Z,-57
2018-07-15T08:47:50.851Z,-58
2018-07-15T08:48:45.839Z,-57
2018-07-15T08:49:43.114Z,-58
2018-07-15T08:50:44.772Z,-57
2018-07-15T08:51:45.180Z,-58
2018-07-15T08:52:41.393Z,-57
2018-07-15T08:53:42.168Z,-57
2018-07-15T08:54:46.800Z,-57
2018-07-15T08:55:45.780Z,-57
2018-07-15T08:56:40.261Z,-57
2018-07-15T08:57:39.130Z,-58
2018-07-15T08:58:41.787Z,-58
2018-07-15T08:59:54.700Z,-57
2018-07-15T09:01:07.820Z,-57
2018-07-15T09:02:06.959Z,-59
2018-07-15T09:04:19.129Z,-58
2018-07-15T09:04:33.308Z,-58
2018-07-15T09:05:30.047Z,-57
2018-07-15T09:06:33.549Z,-56
2018-07-15T09:07:34.266Z,-57
2018-07-15T09:08:33.285Z,-56
2018-07-15T09:09:33.400Z,-55
2018-07-15T09:10:34.255Z,-55
2018-07-15T09:11:42.433Z,-64
2018-07-15T09:12:40.252Z,-53
2018-07-15T09:13:36.484Z,-54
2018-07-15T09:14:39.474Z,-54
2018-07-15T09:15:34.863Z,-54
2018-07-15T09:17:43.295Z,-54
2018-07-15T09:18:40.382Z,-54
2018-07-15T09:19:40.296Z,-54
2018-07-15T09:20:39.129Z,-54
2018-07-15T09:21:43.208Z,-54
2018-07-15T09:22:43.974Z,-54
2018-07-15T09:23:51.567Z,-53
2018-07-15T09:24:49.571Z,-52
2018-07-15T09:26:02.456Z,-51
2018-07-15T09:27:06.433Z,-52
2018-07-15T09:29:37.506Z,-52
2018-07-15T09:30:39.883Z,-53
2018-07-15T09:31:38.010Z,-52
2018-07-15T09:32:39.292Z,-53
2018-07-15T09:33:34.622Z,-51
2018-07-15T09:34:38.160Z,-54
2018-07-15T09:35:33.680Z,-50
2018-07-15T09:36:31.360Z,-51
2018-07-15T09:37:30.077Z,-50
2018-07-15T09:38:29.272Z,-50
2018-07-15T09:40:36.200Z,-51
2018-07-15T09:41:34.126Z,-50
2018-07-15T09:42:38.194Z,-51
2018-07-15T09:43:46.375Z,-51
2018-07-15T09:44:45.513Z,-53
2018-07-15T09:45:41.794Z,-53
2018-07-15T09:46:41.742Z,-53
2018-07-15T09:47:48.640Z,-54
2018-07-15T09:48:54.127Z,-53
2018-07-15T09:51:06.991Z,-54
2018-07-15T09:52:08.671Z,-53
2018-07-15T09:53:04.044Z,-52
2018-07-15T09:54:14.305Z,-51
2018-07-15T09:55:11.886Z,-53
2018-07-15T09:56:15.447Z,-53
2018-07-15T09:57:14.356Z,-53
2018-07-15T09:58:13.038Z,-55
2018-07-15T09:59:09.313Z,-55
2018-07-15T10:00:11.107Z,-55
2018-07-15T10:02:15.374Z,-55
2018-07-15T10:03:16.985Z,-54
2018-07-15T10:04:12.299Z,-56
2018-07-15T10:05:22.747Z,-55
2018-07-15T10:06:21.835Z,-55
2018-07-15T10:07:17.021Z,-55
2018-07-15T10:08:26.646Z,-55
2018-07-15T10:09:22.882Z,-55
2018-07-15T10:10:23.145Z,-50
2018-07-15T10:11:20.915Z,-46
2018-07-15T10:12:26.012Z,-46
2018-07-15T10:13:28.112Z,-52
2018-07-15T10:15:34.079Z,-50
2018-07-15T10:16:33.270Z,-53
2018-07-15T10:17:38.959Z,-49
2018-07-15T10:18:36.643Z,-50
2018-07-15T10:19:35.493Z,-57
2018-07-15T10:20:40.860Z,-51
2018-07-15T10:21:41.757Z,-50
2018-07-15T10:22:39.574Z,-49
2018-07-15T10:23:41.807Z,-50
2018-07-15T10:24:39.477Z,-53
2018-07-15T10:26:48.608Z,-49
2018-07-15T10:27:49.020Z,-48
2018-07-15T10:28:48.226Z,-48
2018-07-15T10:29:47.071Z,-48
2018-07-15T10:30:49.077Z,-48
2018-07-15T10:31:45.993Z,-49
2018-07-15T10:32:49.443Z,-49
2018-07-15T10:33:44.505Z,-48
2018-07-15T10:34:54.143Z,-48
2018-07-15T10:35:51.541Z,-49
2018-07-15T10:36:49.597Z,-50
2018-07-15T10:39:14.612Z,-50
2018-07-15T10:40:14.473Z,-49
2018-07-15T10:41:09.811Z,-50
2018-07-15T10:42:11.799Z,-48
2018-07-15T10:43:28.408Z,-49
2018-07-15T10:44:24.062Z,-50
2018-07-15T10:45:24.623Z,-49
2018-07-15T10:46:25.771Z,-50
2018-07-15T10:47:30.179Z,-49
2018-07-15T10:48:28.890Z,-49
2018-07-15T10:49:26.847Z,-49
2018-07-15T10:50:27.277Z,-50
2018-07-15T10:51:25.350Z,-48
2018-07-15T10:52:34.636Z,-49
2018-07-15T10:54:48.065Z,-50
2018-07-15T10:55:49.009Z,-49
2018-07-15T10:56:45.680Z,-50
2018-07-15T10:57:45.352Z,-50
2018-07-15T10:58:43.269Z,-51
2018-07-15T10:59:44.316Z,-49
2018-07-15T11:00:45.098Z,-55
2018-07-15T11:01:45.628Z,-52
2018-07-15T11:02:42.904Z,-53
2018-07-15T11:03:48.477Z,-54
2018-07-15T11:04:50.334Z,-53
2018-07-15T11:05:48.227Z,-54
2018-07-15T11:06:50.047Z,-52
2018-07-15T11:07:50.050Z,-54
2018-07-15T11:10:18.779Z,-58
2018-07-15T11:11:22.037Z,-53
2018-07-15T11:12:18.822Z,-56
2018-07-15T11:13:16.333Z,-53
2018-07-15T11:14:17.282Z,-53
2018-07-15T11:15:15.120Z,-52
2018-07-15T11:16:11.684Z,-51
2018-07-15T11:17:13.901Z,-51
2018-07-15T11:18:16.960Z,-56
2018-07-15T11:19:12.610Z,-52
2018-07-15T11:20:11.877Z,-52
2018-07-15T11:22:16.092Z,-52
2018-07-15T11:23:13.947Z,-52
2018-07-15T11:24:15.356Z,-52
2018-07-15T11:25:15.457Z,-48
2018-07-15T11:26:13.106Z,-48
2018-07-15T11:27:11.216Z,-48
2018-07-15T11:28:16.657Z,-48
2018-07-15T11:29:17.842Z,-47
2018-07-15T11:30:16.736Z,-58
2018-07-15T11:32:23.789Z,-48
2018-07-15T11:33:25.023Z,-49
2018-07-15T11:34:24.737Z,-48
2018-07-15T11:35:22.443Z,-48
2018-07-15T11:36:21.483Z,-48
2018-07-15T11:37:24.399Z,-48
2018-07-15T11:38:23.173Z,-48
2018-07-15T11:39:17.776Z,-49
2018-07-15T11:40:23.246Z,-49
2018-07-15T11:41:21.795Z,-48
2018-07-15T11:43:27.499Z,-50
2018-07-15T11:44:28.072Z,-50
2018-07-15T11:45:25.325Z,-50
2018-07-15T11:46:25.444Z,-50
2018-07-15T11:47:25.949Z,-50
2018-07-15T11:48:31.426Z,-50
2018-07-15T11:49:41.281Z,-50
2018-07-15T11:50:36.374Z,-50
2018-07-15T11:51:38.925Z,-49
2018-07-15T11:52:41.136Z,-47
2018-07-15T11:53:47.005Z,-48
2018-07-15T11:54:41.964Z,-51
2018-07-15T11:55:43.879Z,-50
2018-07-15T11:58:00.434Z,-61
2018-07-15T11:58:57.512Z,-57
2018-07-15T12:00:00.832Z,-56
2018-07-15T12:01:03.625Z,-54
2018-07-15T12:02:06.516Z,-55
2018-07-15T12:03:04.300Z,-55
2018-07-15T12:04:01.914Z,-59
2018-07-15T12:05:00.107Z,-54
2018-07-15T12:06:07.189Z,-60
2018-07-15T12:07:05.987Z,-54
2018-07-15T12:08:05.897Z,-62
2018-07-15T12:09:06.877Z,-57
2018-07-15T12:10:04.976Z,-56
2018-07-15T12:11:04.786Z,-61
2018-07-15T12:13:23.175Z,-59
2018-07-15T12:14:28.018Z,-55
2018-07-15T12:15:28.114Z,-56
2018-07-15T12:16:34.745Z,-56
2018-07-15T12:17:35.011Z,-57
2018-07-15T12:18:32.988Z,-57
2018-07-15T12:19:36.224Z,-57
2018-07-15T12:20:37.420Z,-55
2018-07-15T12:21:33.543Z,-58
2018-07-15T12:22:31.428Z,-57
2018-07-15T12:23:29.275Z,-58
2018-07-15T12:24:29.094Z,-53
2018-07-15T12:26:47.882Z,-56
2018-07-15T12:27:51.269Z,-55
2018-07-15T12:28:50.811Z,-54
2018-07-15T12:29:53.581Z,-57
2018-07-15T12:30:54.827Z,-58
2018-07-15T12:32:03.270Z,-55
2018-07-15T12:32:56.633Z,-57
2018-07-15T12:34:03.821Z,-51
2018-07-15T12:35:02.236Z,-52
2018-07-15T12:35:59.503Z,-51
2018-07-15T12:37:01.265Z,-54
2018-07-15T12:38:01.710Z,-56
2018-07-15T12:39:08.247Z,-60
2018-07-15T12:40:05.524Z,-57
2018-07-15T12:41:03.953Z,-60
2018-07-15T12:42:06.283Z,-55
2018-07-15T12:43:03.569Z,-54
2018-07-15T12:44:02.706Z,-54
2018-07-15T12:45:02.499Z,-58
2018-07-15T12:47:10.029Z,-55
2018-07-15T12:48:13.948Z,-50
2018-07-15T12:49:12.123Z,-53
2018-07-15T12:50:13.946Z,-50
2018-07-15T12:51:12.241Z,-48
2018-07-15T12:52:16.252Z,-47
2018-07-15T12:53:16.771Z,-54
2018-07-15T12:54:19.125Z,-55
2018-07-15T12:55:21.649Z,-53
2018-07-15T12:57:29.897Z,-53
2018-07-15T12:58:28.468Z,-53
2018-07-15T12:59:33.518Z,-51
2018-07-15T13:00:32.844Z,-50
2018-07-15T13:01:28.746Z,-49
2018-07-15T13:02:30.439Z,-50
2018-07-15T13:03:27.694Z,-50
2018-07-15T13:04:29.146Z,-54
2018-07-15T13:05:34.081Z,-50
2018-07-15T13:06:35.692Z,-49
2018-07-15T13:07:30.198Z,-49
2018-07-15T13:09:45.834Z,-51
2018-07-15T13:10:48.339Z,-50
2018-07-15T13:11:54.464Z,-50
2018-07-15T13:12:53.557Z,-51
2018-07-15T13:13:51.570Z,-50
2018-07-15T13:14:51.896Z,-51
2018-07-15T13:15:56.814Z,-49
2018-07-15T13:16:55.412Z,-51
2018-07-15T13:17:56.706Z,-51
2018-07-15T13:18:54.430Z,-52
2018-07-15T13:20:05.928Z,-50
2018-07-15T13:21:04.759Z,-50
2018-07-15T13:23:16.137Z,-50
2018-07-15T13:24:13.869Z,-50
2018-07-15T13:25:22.985Z,-49
2018-07-15T13:26:19.632Z,-51
2018-07-15T13:27:17.352Z,-49
2018-07-15T13:28:15.369Z,-48
2018-07-15T13:29:16.873Z,-49
2018-07-15T13:30:17.674Z,-49
2018-07-15T13:31:14.608Z,-50
2018-07-15T13:32:15.994Z,-49
2018-07-15T13:33:17.860Z,-49
2018-07-15T13:34:22.208Z,-51
2018-07-15T13:35:22.246Z,-49
2018-07-15T13:36:20.032Z,-51
2018-07-15T13:37:17.337Z,-49
2018-07-15T13:39:28.435Z,-50
2018-07-15T13:40:30.639Z,-53
2018-07-15T13:41:33.344Z,-52
2018-07-15T13:42:34.277Z,-51
2018-07-15T13:43:33.401Z,-54
2018-07-15T13:44:32.138Z,-53
2018-07-15T13:45:33.853Z,-53
2018-07-15T13:46:28.979Z,-53
2018-07-15T13:47:31.761Z,-52
2018-07-15T13:48:29.936Z,-53
2018-07-15T13:49:25.579Z,-52
2018-07-15T13:51:33.879Z,-53
2018-07-15T13:52:31.960Z,-52
2018-07-15T13:53:31.723Z,-56
2018-07-15T13:54:33.446Z,-53
2018-07-15T13:55:33.473Z,-55
2018-07-15T13:56:32.964Z,-52
2018-07-15T13:57:39.906Z,-52
2018-07-15T13:58:40.349Z,-54
2018-07-15T13:59:42.630Z,-52
2018-07-15T14:00:40.825Z,-50
2018-07-15T14:01:44.437Z,-51
2018-07-15T14:02:45.913Z,-53
2018-07-15T14:03:45.724Z,-53
2018-07-15T14:04:47.245Z,-54
2018-07-15T14:06:54.157Z,-53
2018-07-15T14:07:53.146Z,-52
2018-07-15T14:08:57.114Z,-52
2018-07-15T14:09:52.378Z,-51
2018-07-15T14:11:03.321Z,-53
2018-07-15T14:12:04.709Z,-55
2018-07-15T14:13:07.862Z,-51
2018-07-15T14:14:08.292Z,-51
2018-07-15T14:15:07.044Z,-53
2018-07-15T14:16:05.661Z,-52
2018-07-15T14:17:05.511Z,-54
2018-07-15T14:18:05.701Z,-53
2018-07-15T14:20:13.656Z,-54
2018-07-15T14:21:15.870Z,-56
2018-07-15T14:22:17.759Z,-56
2018-07-15T14:23:17.362Z,-55
2018-07-15T14:24:12.930Z,-54
2018-07-15T14:25:19.781Z,-56
2018-07-15T14:26:16.841Z,-56
2018-07-15T14:27:20.391Z,-56
2018-07-15T14:28:26.223Z,-55
2018-07-15T14:29:25.939Z,-61
2018-07-15T14:30:24.674Z,-59
2018-07-15T14:32:38.078Z,-60
2018-07-15T14:33:37.073Z,-57
2018-07-15T14:34:37.871Z,-58
2018-07-15T14:35:36.711Z,-56
2018-07-15T14:36:34.635Z,-65
2018-07-15T14:37:35.258Z,-63
2018-07-15T14:38:34.412Z,-67
2018-07-15T14:39:33.652Z,-57
2018-07-15T14:40:34.924Z,-61
2018-07-15T14:42:53.880Z,-59
2018-07-15T14:43:52.415Z,-59
2018-07-15T14:44:54.978Z,-61
2018-07-15T14:45:53.038Z,-63
2018-07-15T14:47:04.970Z,-68
2018-07-15T14:48:00.337Z,-61
2018-07-15T14:49:17.951Z,-61
2018-07-15T14:50:15.809Z,-58
2018-07-15T14:51:13.557Z,-60
2018-07-15T14:52:17.559Z,-62
2018-07-15T14:53:19.798Z,-56
2018-07-15T14:54:16.451Z,-60
2018-07-15T14:55:17.828Z,-54
2018-07-15T14:57:28.771Z,-56
2018-07-15T14:58:23.218Z,-56
2018-07-15T14:59:21.297Z,-55
2018-07-15T15:00:33.564Z,-54
2018-07-15T15:01:29.394Z,-54
2018-07-15T15:02:36.066Z,-55
2018-07-15T15:03:36.106Z,-55
2018-07-15T15:04:31.082Z,-51
2018-07-15T15:05:33.325Z,-51
2018-07-15T15:06:34.235Z,-49
2018-07-15T15:08:48.258Z,-51
2018-07-15T15:09:50.473Z,-51
2018-07-15T15:10:50.968Z,-50
2018-07-15T15:11:49.822Z,-51
2018-07-15T15:12:54.280Z,-55
2018-07-15T15:13:59.321Z,-58
2018-07-15T15:14:54.697Z,-51
2018-07-15T15:15:57.245Z,-51